Time;durP1;ratioP1;P1;durP2;ratioP2;P2;SDS_P1;SDS_P2;PMS_P1;PMS_P2;Temp;Humidity;BMP_temperature;BMP_pressure;BME280_temperature;BME280_humidity;BME280_pressure;Samples;Min_cycle;Max_cycle;Signal;HPM_P1;HPM_P2
2021/09/18 00:02:03;;;;;;;148.73;139.45;;;16.30;99.90;;;;;;5072892;28;20230;-77
2021/09/18 00:04:30;;;;;;;148.90;139.98;;;16.30;99.90;;;;;;5074550;28;20239;-77
2021/09/18 00:06:57;;;;;;;155.57;146.20;;;16.30;99.90;;;;;;5083461;28;20198;-78
2021/09/18 00:09:24;;;;;;;138.70;130.45;;;16.30;99.90;;;;;;5069282;28;20217;-77
2021/09/18 00:11:51;;;;;;;164.93;155.55;;;16.30;99.90;;;;;;5070333;28;20622;-78
2021/09/18 00:14:18;;;;;;;150.10;141.35;;;16.20;99.90;;;;;;5069960;28;20206;-77
2021/09/18 00:16:46;;;;;;;126.20;118.45;;;16.20;99.90;;;;;;5069441;28;20207;-77
2021/09/18 00:19:13;;;;;;;120.10;113.05;;;16.10;99.90;;;;;;5071563;28;20260;-77
2021/09/18 00:21:41;;;;;;;139.20;130.95;;;16.10;99.90;;;;;;5072852;28;20241;-77
2021/09/18 00:24:08;;;;;;;143.18;134.52;;;16.10;99.90;;;;;;5076933;28;20634;-77
2021/09/18 00:26:35;;;;;;;141.75;133.23;;;16.10;99.90;;;;;;5068516;28;20254;-77
2021/09/18 00:29:03;;;;;;;138.80;130.65;;;16.00;99.90;;;;;;5068698;28;20259;-77
2021/09/18 00:31:30;;;;;;;107.38;100.82;;;16.00;99.90;;;;;;5068223;28;20206;-77
2021/09/18 00:33:58;;;;;;;125.47;118.15;;;16.00;99.90;;;;;;5067995;28;20200;-78
2021/09/18 00:36:25;;;;;;;132.50;124.88;;;16.00;99.90;;;;;;5067803;28;20237;-77
2021/09/18 00:38:52;;;;;;;131.30;123.65;;;16.00;99.90;;;;;;5068019;28;21639;-77
2021/09/18 00:41:19;;;;;;;130.05;121.97;;;16.10;99.90;;;;;;5074854;28;20199;-77
2021/09/18 00:43:50;;;;;;;127.13;119.85;;;16.10;99.90;;;;;;5074819;28;20207;-77
2021/09/18 00:46:17;;;;;;;139.88;131.55;;;16.10;99.90;;;;;;5068106;28;20307;-77
2021/09/18 00:48:44;;;;;;;137.60;129.80;;;16.00;99.90;;;;;;5067807;28;20234;-77
2021/09/18 00:51:12;;;;;;;130.48;122.65;;;16.00;99.90;;;;;;5067858;28;20225;-77
2021/09/18 00:53:39;;;;;;;128.15;120.20;;;15.90;99.90;;;;;;5068108;28;20198;-77
2021/09/18 00:56:07;;;;;;;123.72;116.38;;;15.90;99.90;;;;;;5068336;28;20277;-78
2021/09/18 00:58:34;;;;;;;122.95;115.57;;;15.90;99.90;;;;;;5072021;28;20224;-77
2021/09/18 01:01:01;;;;;;;114.30;107.38;;;16.00;99.90;;;;;;5072909;28;20206;-77
2021/09/18 01:03:28;;;;;;;141.73;133.32;;;16.00;99.90;;;;;;5072816;28;20230;-77
2021/09/18 01:05:57;;;;;;;109.88;102.95;;;16.00;99.90;;;;;;5067869;28;20200;-77
2021/09/18 01:08:27;;;;;;;133.18;124.25;;;15.90;99.90;;;;;;5067773;28;20286;-77
2021/09/18 01:10:55;;;;;;;123.63;116.15;;;15.90;99.90;;;;;;5072382;28;20207;-77
2021/09/18 01:13:22;;;;;;;107.15;99.93;;;15.90;99.90;;;;;;5068484;28;20219;-77
2021/09/18 01:15:50;;;;;;;113.93;106.40;;;15.90;99.90;;;;;;5068062;28;20673;-77
2021/09/18 01:18:17;;;;;;;130.43;122.43;;;15.90;99.90;;;;;;5067773;28;20233;-77
2021/09/18 01:20:46;;;;;;;138.25;129.48;;;15.90;99.90;;;;;;5067628;28;20208;-77
2021/09/18 01:23:18;;;;;;;133.45;125.15;;;15.80;99.90;;;;;;5073323;28;20258;-77
2021/09/18 01:25:45;;;;;;;133.93;125.55;;;15.70;99.90;;;;;;5069166;28;20200;-77
2021/09/18 01:28:12;;;;;;;138.13;129.80;;;15.70;99.90;;;;;;5067996;28;20229;-77
2021/09/18 01:30:39;;;;;;;131.50;123.57;;;15.70;99.90;;;;;;5068565;28;20200;-77
2021/09/18 01:33:07;;;;;;;138.55;129.93;;;15.60;99.90;;;;;;5068273;28;20219;-78
2021/09/18 01:35:34;;;;;;;131.23;122.72;;;15.70;99.90;;;;;;5067756;28;20203;-77
2021/09/18 01:38:02;;;;;;;145.02;136.02;;;15.60;99.90;;;;;;5068124;28;20230;-78
2021/09/18 01:40:33;;;;;;;157.55;147.93;;;15.60;99.90;;;;;;5068129;28;20208;-77
2021/09/18 01:43:00;;;;;;;144.27;135.32;;;15.50;99.90;;;;;;5067552;28;20230;-77
2021/09/18 01:45:27;;;;;;;167.30;156.85;;;15.50;99.90;;;;;;5066924;28;20214;-77
2021/09/18 01:47:57;;;;;;;203.52;190.75;;;15.50;99.90;;;;;;5066938;28;20233;-77
2021/09/18 01:50:28;;;;;;;224.98;211.35;;;15.50;99.90;;;;;;5067121;28;20223;-77
2021/09/18 01:52:58;;;;;;;204.05;191.43;;;15.50;99.90;;;;;;5077163;28;20213;-77
2021/09/18 01:55:25;;;;;;;188.10;175.82;;;15.50;99.90;;;;;;5077090;28;20217;-77
2021/09/18 01:57:55;;;;;;;167.18;156.82;;;15.50;99.90;;;;;;5073510;28;20258;-77
2021/09/18 02:00:23;;;;;;;186.27;174.50;;;15.40;99.90;;;;;;5067612;28;20230;-77
2021/09/18 02:02:50;;;;;;;187.52;175.85;;;15.40;99.90;;;;;;5066724;28;20377;-77
2021/09/18 02:05:19;;;;;;;172.32;161.02;;;15.40;99.90;;;;;;5071403;28;20606;-77
2021/09/18 02:07:46;;;;;;;207.57;194.52;;;15.40;99.90;;;;;;5067636;28;20235;-78
2021/09/18 02:10:15;;;;;;;173.57;162.45;;;15.40;99.90;;;;;;5069446;28;20202;-77
2021/09/18 02:12:43;;;;;;;172.55;161.57;;;15.40;99.90;;;;;;5075056;28;20213;-77
2021/09/18 02:15:13;;;;;;;176.18;164.88;;;15.40;99.90;;;;;;5069891;28;20199;-77
2021/09/18 02:17:41;;;;;;;212.80;200.02;;;15.40;99.90;;;;;;5069615;28;20206;-77
2021/09/18 02:20:10;;;;;;;176.88;165.90;;;15.40;99.90;;;;;;5068686;28;20331;-77
2021/09/18 02:22:38;;;;;;;220.40;206.77;;;15.40;99.90;;;;;;5067754;28;20238;-77
2021/09/18 02:25:05;;;;;;;193.60;181.48;;;15.30;99.90;;;;;;5076865;28;20202;-77
2021/09/18 02:27:32;;;;;;;213.10;199.57;;;15.30;99.90;;;;;;5073511;28;20207;-77
2021/09/18 02:29:59;;;;;;;180.18;169.00;;;15.30;99.90;;;;;;5076947;28;20200;-78
2021/09/18 02:32:28;;;;;;;164.43;153.90;;;15.30;99.90;;;;;;5068448;28;20260;-77
2021/09/18 02:34:55;;;;;;;182.02;170.23;;;15.20;99.90;;;;;;5067595;28;20207;-77
2021/09/18 02:37:22;;;;;;;187.85;176.07;;;15.20;99.90;;;;;;5067874;28;20204;-77
2021/09/18 02:39:49;;;;;;;189.20;177.00;;;15.20;99.90;;;;;;5072410;28;20245;-77
2021/09/18 02:42:15;;;;;;;179.77;167.85;;;15.20;99.90;;;;;;5071610;28;20237;-77
2021/09/18 02:44:42;;;;;;;187.05;174.70;;;15.20;99.90;;;;;;5067576;28;20200;-78
2021/09/18 02:47:09;;;;;;;190.95;178.68;;;15.10;99.90;;;;;;5070551;28;20203;-77
2021/09/18 02:49:38;;;;;;;180.73;169.38;;;15.10;99.90;;;;;;5075549;28;20223;-77
2021/09/18 02:52:05;;;;;;;164.63;154.55;;;15.10;99.90;;;;;;5071557;28;20206;-77
2021/09/18 02:54:31;;;;;;;168.38;157.50;;;15.20;99.90;;;;;;5071696;28;20227;-77
2021/09/18 02:56:58;;;;;;;170.82;160.15;;;15.10;99.90;;;;;;5070779;28;20254;-77
2021/09/18 02:59:25;;;;;;;162.05;151.48;;;15.20;99.90;;;;;;5071280;28;20273;-77
2021/09/18 03:01:52;;;;;;;165.65;154.73;;;15.20;99.90;;;;;;5037268;28;20269;-77
2021/09/18 03:04:19;;;;;;;171.50;160.65;;;15.10;99.90;;;;;;5070829;28;20293;-77
2021/09/18 03:06:48;;;;;;;155.63;145.50;;;15.10;99.90;;;;;;5070859;28;20204;-77
2021/09/18 03:09:14;;;;;;;166.68;155.30;;;15.00;99.90;;;;;;5078145;28;20228;-77
2021/09/18 03:11:41;;;;;;;179.75;168.07;;;14.90;99.90;;;;;;5073277;28;20314;-78
2021/09/18 03:14:09;;;;;;;213.93;200.20;;;14.90;99.90;;;;;;5070390;28;20678;-78
2021/09/18 03:16:36;;;;;;;189.50;177.20;;;14.80;99.90;;;;;;5076935;28;20204;-77
2021/09/18 03:19:03;;;;;;;223.75;209.38;;;14.80;99.90;;;;;;5071159;28;20203;-77
2021/09/18 03:21:30;;;;;;;198.13;185.02;;;14.80;99.90;;;;;;5071109;28;20214;-77
2021/09/18 03:23:58;;;;;;;193.18;180.32;;;14.70;99.90;;;;;;5073602;28;20669;-77
2021/09/18 03:26:25;;;;;;;191.13;178.45;;;14.80;99.90;;;;;;5073219;28;20208;-77
2021/09/18 03:28:52;;;;;;;195.20;182.07;;;14.70;99.90;;;;;;5070127;28;20222;-77
2021/09/18 03:31:19;;;;;;;200.77;187.20;;;14.70;99.90;;;;;;5077223;28;20268;-77
2021/09/18 03:33:46;;;;;;;205.35;191.75;;;14.60;99.90;;;;;;5075535;28;20211;-77
2021/09/18 03:36:14;;;;;;;162.93;151.75;;;14.60;99.90;;;;;;5074254;28;20230;-77
2021/09/18 03:38:41;;;;;;;173.38;161.65;;;14.60;99.90;;;;;;5073315;28;20226;-77
2021/09/18 03:41:10;;;;;;;215.25;201.50;;;14.60;99.90;;;;;;5076458;28;20203;-77
2021/09/18 03:43:37;;;;;;;180.40;168.27;;;14.60;99.90;;;;;;5076095;28;20202;-77
2021/09/18 03:46:04;;;;;;;222.90;208.68;;;14.50;99.90;;;;;;5073650;28;20199;-78
2021/09/18 03:48:30;;;;;;;181.23;169.18;;;14.50;99.90;;;;;;5070451;28;20238;-77
2021/09/18 03:50:57;;;;;;;214.45;200.55;;;14.50;99.90;;;;;;5070414;28;20207;-77
2021/09/18 03:53:24;;;;;;;240.85;225.43;;;14.50;99.90;;;;;;5070803;28;20206;-77
2021/09/18 03:55:51;;;;;;;207.88;194.73;;;14.50;99.90;;;;;;5069439;28;20211;-77
2021/09/18 03:58:20;;;;;;;231.63;216.07;;;14.40;99.90;;;;;;5068636;28;20211;-77
2021/09/18 04:00:47;;;;;;;238.75;223.35;;;14.50;99.90;;;;;;5071479;28;20260;-77
2021/09/18 04:03:13;;;;;;;251.55;234.82;;;14.50;99.90;;;;;;5076936;28;20227;-77
2021/09/18 04:05:40;;;;;;;245.05;229.02;;;14.50;99.90;;;;;;5073722;28;20230;-77
2021/09/18 04:08:09;;;;;;;272.60;254.63;;;14.50;99.90;;;;;;5077344;28;20200;-77
2021/09/18 04:10:36;;;;;;;245.10;228.85;;;14.60;99.90;;;;;;5077147;28;20194;-77
2021/09/18 04:13:03;;;;;;;244.27;228.57;;;14.60;99.90;;;;;;5078629;28;20229;-77
2021/09/18 04:15:32;;;;;;;288.63;269.65;;;14.60;99.90;;;;;;5072299;28;20237;-77
2021/09/18 04:17:59;;;;;;;262.38;245.25;;;14.60;99.90;;;;;;5067800;28;20203;-77
2021/09/18 04:20:26;;;;;;;272.08;254.57;;;14.50;99.90;;;;;;5067933;28;20197;-77
2021/09/18 04:22:53;;;;;;;259.35;242.05;;;14.50;99.90;;;;;;5068485;28;20205;-77
2021/09/18 04:25:20;;;;;;;266.05;248.98;;;14.50;99.90;;;;;;5067476;28;20197;-77
2021/09/18 04:27:47;;;;;;;306.73;286.70;;;14.60;99.90;;;;;;5068225;28;20236;-77
2021/09/18 04:30:14;;;;;;;272.05;253.88;;;14.50;99.90;;;;;;5072558;28;20776;-77
2021/09/18 04:32:43;;;;;;;302.88;282.85;;;14.60;99.90;;;;;;5075396;28;20234;-77
2021/09/18 04:35:10;;;;;;;272.38;254.60;;;14.60;99.90;;;;;;5067564;28;20206;-77
2021/09/18 04:37:38;;;;;;;290.33;271.38;;;14.60;99.90;;;;;;5068219;28;20195;-77
2021/09/18 04:40:06;;;;;;;263.13;245.70;;;14.60;99.90;;;;;;5067980;28;20206;-78
2021/09/18 04:42:33;;;;;;;267.50;250.07;;;14.60;99.90;;;;;;5068078;28;20211;-77
2021/09/18 04:45:00;;;;;;;255.00;238.13;;;14.50;99.90;;;;;;5068640;28;20202;-77
2021/09/18 04:47:27;;;;;;;246.82;230.88;;;14.50;99.90;;;;;;5068477;28;20208;-77
2021/09/18 04:49:57;;;;;;;267.48;249.38;;;14.50;99.90;;;;;;5068298;28;20617;-77
2021/09/18 04:52:24;;;;;;;247.75;232.02;;;14.50;99.90;;;;;;5068300;28;20200;-77
2021/09/18 04:54:53;;;;;;;277.52;259.20;;;14.50;99.90;;;;;;5073445;28;20202;-77
2021/09/18 04:57:20;;;;;;;280.58;261.83;;;14.50;99.90;;;;;;5071046;28;20204;-77
2021/09/18 04:59:47;;;;;;;325.08;303.77;;;14.50;99.90;;;;;;5074503;28;20228;-77
2021/09/18 05:02:14;;;;;;;291.58;272.27;;;14.50;99.90;;;;;;5070786;28;20197;-77
2021/09/18 05:04:41;;;;;;;230.55;215.73;;;14.50;99.90;;;;;;5074992;28;20231;-77
2021/09/18 05:07:09;;;;;;;264.40;247.05;;;14.40;99.90;;;;;;5068977;28;20233;-77
2021/09/18 05:09:36;;;;;;;305.27;284.40;;;14.40;99.90;;;;;;5074253;28;20249;-76
2021/09/18 05:12:03;;;;;;;328.17;305.75;;;14.40;99.90;;;;;;5081098;28;20203;-77
2021/09/18 05:14:30;;;;;;;287.42;268.23;;;14.40;99.90;;;;;;5072458;28;20217;-77
2021/09/18 05:16:57;;;;;;;312.27;291.25;;;14.40;99.90;;;;;;5068088;28;20226;-77
2021/09/18 05:19:24;;;;;;;203.30;189.88;;;14.40;99.90;;;;;;5069659;28;20502;-77
2021/09/18 05:21:51;;;;;;;292.20;272.20;;;14.40;99.90;;;;;;5067362;28;20211;-77
2021/09/18 05:24:19;;;;;;;290.23;271.20;;;14.40;99.90;;;;;;5067906;28;20195;-77
2021/09/18 05:26:46;;;;;;;300.83;280.90;;;14.40;99.90;;;;;;5067335;28;20262;-77
2021/09/18 05:29:13;;;;;;;298.58;278.25;;;14.40;99.90;;;;;;5067094;28;20235;-77
2021/09/18 05:31:40;;;;;;;326.52;304.27;;;14.40;99.90;;;;;;5075897;28;20235;-77
2021/09/18 05:34:06;;;;;;;325.48;304.10;;;14.50;99.90;;;;;;5070227;28;20579;-76
2021/09/18 05:36:33;;;;;;;303.40;283.25;;;14.50;99.90;;;;;;5066467;28;20210;-77
2021/09/18 05:39:00;;;;;;;297.05;277.40;;;14.40;99.90;;;;;;5066242;28;20200;-76
2021/09/18 05:41:28;;;;;;;291.60;272.80;;;14.40;99.90;;;;;;5072721;28;20237;-77
2021/09/18 05:43:55;;;;;;;327.77;305.58;;;14.40;99.90;;;;;;5067528;28;20211;-77
2021/09/18 05:46:22;;;;;;;320.13;298.65;;;14.40;99.90;;;;;;5072230;28;20203;-77
2021/09/18 05:48:49;;;;;;;302.55;281.98;;;14.40;99.90;;;;;;5066715;28;20771;-77
2021/09/18 05:51:16;;;;;;;291.92;272.35;;;14.40;99.90;;;;;;5066881;28;20198;-76
2021/09/18 05:53:43;;;;;;;296.80;277.40;;;14.40;99.90;;;;;;5066124;28;20203;-77
2021/09/18 05:56:10;;;;;;;286.80;267.60;;;14.40;99.90;;;;;;5066105;28;20237;-76
2021/09/18 05:58:38;;;;;;;314.35;293.35;;;14.40;99.90;;;;;;5066686;28;20193;-76
2021/09/18 06:01:05;;;;;;;262.90;245.23;;;14.40;99.90;;;;;;5068824;28;20617;-77
2021/09/18 06:03:32;;;;;;;278.65;260.50;;;14.50;99.90;;;;;;5071776;28;20309;-76
2021/09/18 06:05:59;;;;;;;282.75;264.55;;;14.50;99.90;;;;;;5072586;28;20230;-77
2021/09/18 06:08:26;;;;;;;251.93;235.63;;;14.50;99.90;;;;;;5066729;28;20214;-76
2021/09/18 06:10:53;;;;;;;240.80;224.63;;;14.60;99.90;;;;;;5065979;28;20304;-77
2021/09/18 06:13:20;;;;;;;273.02;255.07;;;14.60;99.90;;;;;;5066448;28;20207;-77
2021/09/18 06:15:48;;;;;;;292.10;272.85;;;14.70;99.90;;;;;;5065935;28;20200;-77
2021/09/18 06:18:15;;;;;;;254.00;237.27;;;14.80;99.90;;;;;;5066280;28;20206;-76
2021/09/18 06:20:42;;;;;;;261.83;244.38;;;14.80;99.90;;;;;;5051439;28;20206;-77
2021/09/18 06:23:09;;;;;;;274.90;257.15;;;14.90;99.90;;;;;;5075499;28;20210;-76
2021/09/18 06:25:39;;;;;;;276.63;258.15;;;15.00;99.90;;;;;;5075915;28;20195;-77
2021/09/18 06:28:08;;;;;;;281.88;263.00;;;15.10;99.90;;;;;;5069948;28;20257;-76
2021/09/18 06:30:35;;;;;;;242.63;226.70;;;15.20;99.90;;;;;;5070008;28;20227;-76
2021/09/18 06:33:05;;;;;;;256.30;239.95;;;15.30;99.90;;;;;;5070259;28;20206;-76
2021/09/18 06:35:32;;;;;;;299.88;279.65;;;15.40;99.90;;;;;;5070856;28;20260;-76
2021/09/18 06:37:59;;;;;;;292.05;273.10;;;15.40;99.90;;;;;;5070036;28;20206;-76
2021/09/18 06:40:26;;;;;;;246.32;230.95;;;15.50;99.90;;;;;;5070917;28;20209;-76
2021/09/18 06:42:53;;;;;;;265.23;248.25;;;15.60;99.90;;;;;;5075587;28;20200;-76
2021/09/18 06:45:20;;;;;;;277.58;259.42;;;15.70;99.90;;;;;;5078410;28;20210;-76
2021/09/18 06:47:47;;;;;;;264.73;247.82;;;15.80;99.90;;;;;;5080690;28;20210;-76
2021/09/18 06:50:16;;;;;;;254.35;237.98;;;15.70;99.90;;;;;;5077528;28;20245;-76
2021/09/18 06:52:43;;;;;;;268.70;251.65;;;15.80;99.90;;;;;;5069986;28;20204;-76
2021/09/18 06:55:10;;;;;;;265.27;248.27;;;15.70;99.90;;;;;;5069512;28;20262;-76
2021/09/18 06:57:38;;;;;;;277.83;259.85;;;15.80;99.90;;;;;;5070105;28;20226;-77
2021/09/18 07:00:07;;;;;;;249.68;233.68;;;15.90;99.90;;;;;;5077321;28;20215;-76
2021/09/18 07:02:34;;;;;;;264.35;248.10;;;16.00;99.90;;;;;;5082075;28;20180;-76
2021/09/18 07:05:01;;;;;;;269.63;252.57;;;16.10;99.90;;;;;;5083038;28;20203;-77
2021/09/18 07:07:29;;;;;;;291.98;273.00;;;16.10;99.90;;;;;;5085967;28;20573;-76
2021/09/18 07:09:57;;;;;;;256.00;239.85;;;16.20;99.90;;;;;;5069812;28;20214;-77
2021/09/18 07:12:24;;;;;;;283.77;265.27;;;16.30;99.90;;;;;;5071788;28;20291;-76
2021/09/18 07:14:51;;;;;;;274.05;256.00;;;16.40;99.90;;;;;;5080387;28;20234;-76
2021/09/18 07:17:18;;;;;;;254.60;238.40;;;16.50;99.90;;;;;;5073715;28;20257;-77
2021/09/18 07:19:45;;;;;;;254.40;237.98;;;16.60;99.90;;;;;;5084445;28;20725;-77
2021/09/18 07:22:12;;;;;;;260.42;242.77;;;16.80;99.90;;;;;;5073969;28;20205;-77
2021/09/18 07:24:41;;;;;;;303.15;283.08;;;16.90;99.90;;;;;;5069466;28;20211;-77
2021/09/18 07:27:08;;;;;;;277.65;259.27;;;16.90;99.90;;;;;;5069386;28;20207;-77
2021/09/18 07:29:35;;;;;;;301.05;280.73;;;17.10;99.90;;;;;;5071141;28;20218;-77
2021/09/18 07:32:02;;;;;;;268.92;250.52;;;17.40;99.90;;;;;;5075103;28;20223;-77
2021/09/18 07:34:29;;;;;;;267.30;249.75;;;17.80;99.90;;;;;;5071200;28;20212;-77
2021/09/18 07:36:56;;;;;;;250.88;234.70;;;18.20;99.90;;;;;;5069279;28;20205;-77
2021/09/18 07:39:28;;;;;;;254.13;237.80;;;18.50;99.90;;;;;;5069246;28;20211;-77
2021/09/18 07:41:56;;;;;;;241.32;225.75;;;18.90;99.90;;;;;;5069726;28;20205;-77
2021/09/18 07:44:23;;;;;;;195.38;182.13;;;19.30;99.90;;;;;;5071386;28;20212;-77
2021/09/18 07:46:50;;;;;;;210.00;196.52;;;19.70;99.90;;;;;;5071163;28;20241;-77
2021/09/18 07:49:17;;;;;;;173.98;162.30;;;19.90;99.90;;;;;;5068578;28;20201;-77
2021/09/18 07:51:44;;;;;;;176.10;164.73;;;20.20;99.90;;;;;;5073848;28;20227;-77
2021/09/18 07:54:11;;;;;;;164.25;153.55;;;20.50;99.90;;;;;;5072123;28;20204;-77
2021/09/18 07:56:38;;;;;;;165.75;154.43;;;20.70;99.90;;;;;;5074519;28;20249;-77
2021/09/18 07:59:07;;;;;;;148.82;138.73;;;21.00;99.90;;;;;;5070303;28;20593;-77
2021/09/18 08:01:34;;;;;;;148.60;138.00;;;21.20;99.90;;;;;;5069687;28;20202;-77
2021/09/18 08:04:02;;;;;;;164.57;153.65;;;21.40;99.90;;;;;;5081653;28;20715;-77
2021/09/18 08:06:29;;;;;;;150.02;139.82;;;21.60;99.90;;;;;;5074145;28;20377;-77
2021/09/18 08:08:57;;;;;;;108.97;101.28;;;21.90;99.90;;;;;;5069168;28;20551;-77
2021/09/18 08:11:24;;;;;;;115.75;107.22;;;22.10;99.90;;;;;;5076068;28;20239;-77
2021/09/18 08:13:51;;;;;;;86.95;79.85;;;22.50;99.90;;;;;;5073749;28;20207;-77
2021/09/18 08:16:21;;;;;;;82.60;75.85;;;22.60;99.90;;;;;;5069102;28;20204;-77
2021/09/18 08:18:48;;;;;;;83.55;76.93;;;22.70;99.90;;;;;;5069467;28;20579;-77
2021/09/18 08:21:16;;;;;;;66.82;60.70;;;22.80;99.90;;;;;;5069069;28;20199;-77
2021/09/18 08:23:43;;;;;;;90.10;82.93;;;23.20;99.90;;;;;;5075499;28;20202;-77
2021/09/18 08:26:10;;;;;;;79.88;73.45;;;23.50;99.90;;;;;;5070165;28;20199;-77
2021/09/18 08:28:38;;;;;;;62.58;57.00;;;23.80;99.90;;;;;;5073349;28;20193;-77
2021/09/18 08:31:06;;;;;;;58.08;52.92;;;23.80;99.90;;;;;;5071217;28;20689;-77
2021/09/18 08:33:34;;;;;;;53.55;48.28;;;23.80;99.90;;;;;;5072436;28;20232;-77
2021/09/18 08:36:01;;;;;;;51.00;46.05;;;24.00;99.90;;;;;;5068530;28;20199;-77
2021/09/18 08:38:28;;;;;;;53.17;48.28;;;24.30;99.90;;;;;;5068167;28;20193;-77
2021/09/18 08:40:55;;;;;;;53.95;45.30;;;24.40;99.90;;;;;;5071618;28;20203;-77
2021/09/18 08:43:23;;;;;;;58.00;44.38;;;24.00;99.90;;;;;;5066201;28;20208;-77
2021/09/18 08:45:50;;;;;;;51.78;46.28;;;24.10;99.90;;;;;;5070554;28;20207;-77
2021/09/18 08:48:17;;;;;;;55.28;49.60;;;24.40;99.90;;;;;;5068047;28;20208;-77
2021/09/18 08:50:49;;;;;;;48.33;43.22;;;24.60;99.90;;;;;;5067619;28;20238;-77
2021/09/18 08:53:15;;;;;;;55.92;45.75;;;24.80;99.90;;;;;;5067179;28;20257;-77
2021/09/18 08:55:43;;;;;;;47.60;41.03;;;25.00;99.90;;;;;;5071794;28;20230;-77
2021/09/18 08:58:09;;;;;;;50.83;39.30;;;25.20;99.90;;;;;;5067893;28;20201;-77
2021/09/18 09:00:47;;;;;;;46.15;37.58;;;25.40;99.90;;;;;;5071832;28;20259;-77
2021/09/18 09:03:15;;;;;;;48.42;35.55;;;25.70;99.90;;;;;;5067076;28;20243;-77
2021/09/18 09:05:46;;;;;;;48.97;36.28;;;25.80;99.90;;;;;;5074268;28;20983;-77
2021/09/18 09:08:15;;;;;;;44.10;34.97;;;25.60;99.90;;;;;;5068317;28;20239;-77
2021/09/18 09:10:44;;;;;;;48.13;35.40;;;25.90;99.90;;;;;;5067137;28;20232;-77
2021/09/18 09:13:14;;;;;;;53.42;37.75;;;26.20;99.90;;;;;;5067684;28;20250;-77
2021/09/18 09:15:43;;;;;;;65.18;42.65;;;26.30;99.90;;;;;;5067476;28;20201;-77
2021/09/18 09:18:18;;;;;;;50.50;36.10;;;26.10;99.90;;;;;;5070749;28;20660;-77
2021/09/18 09:20:48;;;;;;;51.92;41.33;;;26.10;99.90;;;;;;5066605;28;20204;-77
2021/09/18 09:23:16;;;;;;;62.58;39.42;;;26.10;99.90;;;;;;5072043;28;20226;-77
2021/09/18 09:25:43;;;;;;;49.45;35.20;;;26.30;99.90;;;;;;5070183;28;20209;-77
2021/09/18 09:28:28;;;;;;;42.05;30.88;;;26.50;99.90;;;;;;5076405;28;20203;-77
2021/09/18 09:31:00;;;;;;;37.65;32.50;;;26.60;99.90;;;;;;5079296;28;20257;-77
2021/09/18 09:33:29;;;;;;;36.33;30.65;;;26.70;99.90;;;;;;5073122;28;20203;-77
2021/09/18 09:35:57;;;;;;;35.47;22.85;;;27.00;99.90;;;;;;5071330;28;20485;-77
2021/09/18 09:38:33;;;;;;;27.95;21.50;;;27.10;99.90;;;;;;5071036;28;20223;-77
2021/09/18 09:41:00;;;;;;;29.42;21.10;;;27.10;99.90;;;;;;5067280;28;20288;-77
2021/09/18 09:43:27;;;;;;;26.80;20.27;;;26.70;99.90;;;;;;5066492;28;20207;-77
2021/09/18 09:45:54;;;;;;;30.92;23.58;;;26.50;99.90;;;;;;5067308;28;20223;-77
2021/09/18 09:48:23;;;;;;;30.98;24.45;;;26.60;99.90;;;;;;5073250;28;20227;-77
2021/09/18 09:51:01;;;;;;;28.80;23.17;;;26.80;99.90;;;;;;5071374;28;20250;-77
2021/09/18 09:53:30;;;;;;;30.25;24.23;;;26.70;99.90;;;;;;5069342;28;20237;-77
2021/09/18 09:56:06;;;;;;;32.05;26.23;;;26.30;99.90;;;;;;5067249;28;20201;-77
2021/09/18 09:58:52;;;;;;;37.95;27.15;;;26.30;99.90;;;;;;5066646;28;20211;-77
2021/09/18 10:14:39;;;;;;;36.25;30.20;;;25.30;99.90;;;;;;5087281;28;20197;-77
2021/09/18 10:17:06;;;;;;;35.13;27.92;;;24.90;99.90;;;;;;5096285;28;20638;-76
2021/09/18 10:25:06;;;;;;;35.67;28.33;;;24.60;99.90;;;;;;5090600;28;20217;-76
2021/09/18 10:27:32;;;;;;;31.95;28.58;;;24.40;99.90;;;;;;5086892;28;20571;-76
2021/09/18 10:30:01;;;;;;;27.08;22.00;;;24.30;99.90;;;;;;5089270;28;20203;-77
2021/09/18 10:32:28;;;;;;;30.55;26.83;;;24.10;99.90;;;;;;5088794;28;20207;-77
2021/09/18 10:35:11;;;;;;;31.10;22.10;;;24.10;99.90;;;;;;5086766;28;20217;-77
2021/09/18 10:37:39;;;;;;;34.47;27.77;;;23.90;99.90;;;;;;5086878;28;20623;-77
2021/09/18 10:40:09;;;;;;;34.03;29.63;;;23.80;99.90;;;;;;5086796;28;20231;-77
2021/09/18 10:42:39;;;;;;;41.28;26.60;;;23.60;99.90;;;;;;5082593;28;20220;-77
2021/09/18 10:45:09;;;;;;;35.75;29.52;;;23.50;99.90;;;;;;5090867;28;20195;-76
2021/09/18 10:47:42;;;;;;;35.22;31.50;;;23.50;99.90;;;;;;5087679;28;20199;-76
2021/09/18 10:50:40;;;;;;;41.42;37.10;;;23.70;99.90;;;;;;5089445;28;20656;-76
2021/09/18 10:53:10;;;;;;;39.92;35.80;;;24.10;99.90;;;;;;5082938;28;20274;-77
2021/09/18 10:55:54;;;;;;;32.60;29.08;;;24.30;99.90;;;;;;5082560;28;20235;-77
2021/09/18 10:58:22;;;;;;;31.55;28.15;;;24.60;99.90;;;;;;5086237;28;20247;-77
2021/09/18 11:00:56;;;;;;;33.60;30.00;;;24.80;99.90;;;;;;5086299;28;20203;-76
2021/09/18 11:03:44;;;;;;;34.33;31.40;;;25.00;99.90;;;;;;5082266;28;20235;-77
2021/09/18 11:06:38;;;;;;;30.75;27.60;;;25.20;99.90;;;;;;5087790;28;20197;-77
2021/09/18 11:09:06;;;;;;;28.95;26.15;;;25.10;99.90;;;;;;5082820;28;20200;-76
2021/09/18 11:11:33;;;;;;;29.40;26.40;;;24.80;99.90;;;;;;5081663;28;20208;-76
2021/09/18 11:14:01;;;;;;;30.52;27.48;;;24.60;99.90;;;;;;5081431;28;20201;-77
2021/09/18 11:16:34;;;;;;;33.85;30.58;;;24.30;99.90;;;;;;5072804;28;20654;-76
2021/09/18 11:19:09;;;;;;;30.65;27.73;;;23.90;99.90;;;;;;5072342;28;20205;-77
2021/09/18 11:21:40;;;;;;;32.08;29.27;;;23.70;99.90;;;;;;5074721;28;20204;-77
2021/09/18 11:24:23;;;;;;;45.50;41.30;;;23.60;99.90;;;;;;5073766;28;20248;-76
2021/09/18 11:26:51;;;;;;;36.00;32.72;;;23.50;99.90;;;;;;5074250;28;20254;-77
2021/09/18 11:29:27;;;;;;;38.67;35.38;;;23.40;99.90;;;;;;5067941;28;20200;-77
2021/09/18 11:31:59;;;;;;;49.60;45.60;;;23.30;99.90;;;;;;5068533;28;20681;-76
2021/09/18 11:34:27;;;;;;;48.80;45.28;;;23.30;99.90;;;;;;5068746;28;20199;-77
2021/09/18 11:36:57;;;;;;;34.47;31.50;;;23.30;99.90;;;;;;5072838;28;20226;-77
2021/09/18 11:39:45;;;;;;;42.10;39.28;;;23.30;99.90;;;;;;5067944;28;20198;-77
2021/09/18 11:42:23;;;;;;;39.60;36.58;;;23.30;99.90;;;;;;5069105;28;20212;-77
2021/09/18 11:44:52;;;;;;;43.10;39.92;;;23.30;99.90;;;;;;5068424;28;20287;-76
2021/09/18 11:47:27;;;;;;;39.53;36.40;;;23.30;99.90;;;;;;5068439;28;20195;-77
2021/09/18 11:49:55;;;;;;;52.80;48.90;;;23.30;99.90;;;;;;5068849;28;20205;-76
2021/09/18 11:52:35;;;;;;;40.88;37.50;;;23.20;99.90;;;;;;5068055;28;20201;-76
2021/09/18 11:55:04;;;;;;;37.15;34.30;;;23.00;99.90;;;;;;5067873;28;20240;-76
2021/09/18 11:57:31;;;;;;;38.35;35.85;;;23.00;99.90;;;;;;5067931;28;20220;-77
2021/09/18 12:00:13;;;;;;;34.30;31.60;;;22.90;99.90;;;;;;5074616;28;20198;-76
2021/09/18 12:02:40;;;;;;;43.72;40.83;;;22.90;99.90;;;;;;5068173;28;20282;-76
2021/09/18 12:05:15;;;;;;;34.95;32.42;;;22.90;99.90;;;;;;5071512;28;20248;-76
2021/09/18 12:07:46;;;;;;;46.45;43.25;;;23.00;99.90;;;;;;5073278;28;20212;-76
2021/09/18 12:10:15;;;;;;;34.50;31.63;;;23.10;99.90;;;;;;5068376;28;20730;-77
2021/09/18 12:12:43;;;;;;;42.20;39.35;;;23.10;99.90;;;;;;5071662;28;20229;-77
2021/09/18 12:15:11;;;;;;;35.28;32.65;;;23.10;99.90;;;;;;5067875;28;20281;-77
2021/09/18 12:17:40;;;;;;;49.47;45.88;;;23.20;99.90;;;;;;5071582;28;20202;-77
2021/09/18 12:20:10;;;;;;;34.17;31.15;;;23.30;99.90;;;;;;5073292;28;20206;-77
2021/09/18 12:22:37;;;;;;;49.00;45.72;;;23.30;99.90;;;;;;5068247;28;20650;-77
2021/09/18 12:25:07;;;;;;;48.72;44.95;;;23.20;99.90;;;;;;5067705;28;20252;-77
2021/09/18 12:27:36;;;;;;;37.20;34.45;;;23.20;99.90;;;;;;5066332;28;20231;-77
2021/09/18 12:30:07;;;;;;;30.40;28.02;;;23.20;99.90;;;;;;5067489;28;20206;-77
2021/09/18 12:32:35;;;;;;;43.17;39.95;;;23.20;99.90;;;;;;5071138;28;20197;-77
2021/09/18 12:35:08;;;;;;;42.85;39.90;;;23.20;99.90;;;;;;5072966;28;20206;-77
2021/09/18 12:37:38;;;;;;;38.88;35.97;;;23.20;99.90;;;;;;5069140;28;20199;-77
2021/09/18 12:40:19;;;;;;;38.92;36.08;;;23.30;99.90;;;;;;5074302;28;20200;-77